Accueil
METAR-TAF:

METAR-TAF

Aéroports :

Londres Biggin Hill, Angleterre

Aérodrome de Londres Biggin Hill

latitude: 51-19N, longitude: 000-02E, altitude: 183 m

Observation

Le bulletin a été fait il y a 11 minutes, à 17:20 UTC
Vent 13 kt de ouest avec des rafales jusqu'à 24 kt, variant entre sud-ouest et nord-ouest
Température 21°C
Humidité 60%
Pression 1012 hPa
Visibilité 10 km ou plus
Nuages épars à une hauteur de 3000 ft
Nuages épars à une hauteur de 4000 ft

METAR: EGKB 251720Z 27013G24KT 230V320 9999 SCT030 SCT040 21/13 Q1012

Heure: 18:31 (17:31 UTC)

Prévision

Le bulletin a été fait il y a 3 heures et 32 minutes, à 13:59 UTC
Prévision valable du 25 à 15 UTC au 25 à 19 UTC
Vent 12 kt de ouest/sud-ouest
Visibilité 10 km ou plus
Nuages épars à une hauteur de 3000 ft

TAF: EGKB 251359Z 2515/2519 24012KT 9999 SCT030

Observations et prévisions météorologiques de plus de 4000 aéroports (messages METAR et TAF).

Les stations disponibles sont représentées par des disques jaunes et rouges sur la carte.

Passer la souris dessus pour voir le nom de la station.

Cliquer dessus pour voir les observations et prévisions météorologiques.

Pour changer de carte: cliquez sur les boutons verts avec une croix noire pour zoomer, sur le bouton vert avec un tiret pour effectuer un zoom arrière, ou sur les flèches vertes pour les cartes adjacentes.


METAR-TAF: